Time;durP1;ratioP1;P1;durP2;ratioP2;P2;SDS_P1;SDS_P2;PMS_P1;PMS_P2;Temp;Humidity;BMP_temperature;BMP_pressure;BME280_temperature;BME280_humidity;BME280_pressure;Samples;Min_cycle;Max_cycle;Signal;HPM_P1;HPM_P2
2023/01/03 00:00:48;;;;;;;6.93;2.75;;;;;;;;;;5038302;28;20036;-24
2023/01/03 00:03:16;;;;;;;5.53;2.97;;;;;;;;;;5037959;28;20111;-25
2023/01/03 00:05:45;;;;;;;10.00;2.40;;;;;;;;;;5037770;28;20477;-25
2023/01/03 00:08:11;;;;;;;8.52;3.00;;;;;;;;;;5037915;28;20061;-25
2023/01/03 00:10:38;;;;;;;16.60;2.80;;;;;;;;;;5037861;28;20021;-24
2023/01/03 00:13:04;;;;;;;5.63;2.40;;;;;;;;;;5038016;28;20045;-25
2023/01/03 00:15:33;;;;;;;12.07;3.63;;;;;;;;;;5037744;28;20064;-26
2023/01/03 00:17:59;;;;;;;7.57;2.58;;;;;;;;;;5036654;28;20068;-26
2023/01/03 00:20:25;;;;;;;9.25;2.65;;;;;;;;;;5037691;28;20029;-26
2023/01/03 00:22:51;;;;;;;7.75;2.53;;;;;;;;;;5036966;28;20123;-26
2023/01/03 00:25:18;;;;;;;16.75;2.97;;;;;;;;;;5037878;28;20075;-24
2023/01/03 00:27:44;;;;;;;5.70;2.28;;;;;;;;;;5037837;28;20068;-27
2023/01/03 00:30:10;;;;;;;7.47;2.83;;;;;;;;;;5037524;28;20033;-26
2023/01/03 00:32:36;;;;;;;11.05;2.80;;;;;;;;;;5036387;28;20025;-25
2023/01/03 00:35:02;;;;;;;7.00;2.67;;;;;;;;;;5036491;28;20106;-26
2023/01/03 00:37:28;;;;;;;6.07;2.78;;;;;;;;;;5037375;28;20026;-28
2023/01/03 00:39:55;;;;;;;9.25;2.65;;;;;;;;;;5037266;28;20115;-27
2023/01/03 00:42:21;;;;;;;6.28;3.03;;;;;;;;;;5037538;28;20352;-25
2023/01/03 00:44:47;;;;;;;9.48;3.30;;;;;;;;;;5037253;28;20033;-24
2023/01/03 00:47:13;;;;;;;6.50;2.35;;;;;;;;;;5037233;28;20036;-25
2023/01/03 00:49:39;;;;;;;7.05;2.58;;;;;;;;;;5036223;28;20070;-24
2023/01/03 00:52:05;;;;;;;8.95;3.22;;;;;;;;;;5037067;28;20099;-29
2023/01/03 00:54:31;;;;;;;4.07;2.33;;;;;;;;;;5037104;28;20200;-25
2023/01/03 00:56:57;;;;;;;6.75;2.78;;;;;;;;;;5035537;28;20459;-27
2023/01/03 00:59:24;;;;;;;13.05;4.70;;;;;;;;;;5037252;28;20091;-25
2023/01/03 01:01:52;;;;;;;10.77;2.42;;;;;;;;;;5035874;28;20036;-25
2023/01/03 01:04:29;;;;;;;10.15;2.55;;;;;;;;;;5036687;28;20045;-27
2023/01/03 01:06:56;;;;;;;5.80;2.67;;;;;;;;;;5037117;28;20021;-28
2023/01/03 01:09:26;;;;;;;5.93;2.90;;;;;;;;;;5036768;28;20037;-25
2023/01/03 01:11:53;;;;;;;6.47;2.63;;;;;;;;;;5036638;28;20456;-25
2023/01/03 01:14:20;;;;;;;11.63;2.58;;;;;;;;;;5036685;28;20464;-24
2023/01/03 01:16:51;;;;;;;7.50;2.70;;;;;;;;;;5035677;28;20029;-27
2023/01/03 01:19:18;;;;;;;4.47;2.63;;;;;;;;;;5036540;28;20116;-27
2023/01/03 01:21:44;;;;;;;4.40;3.10;;;;;;;;;;5036486;28;20448;-24
2023/01/03 01:24:11;;;;;;;8.63;2.63;;;;;;;;;;5035539;28;20032;-27
2023/01/03 01:26:37;;;;;;;10.60;2.78;;;;;;;;;;5036721;28;20021;-27
2023/01/03 01:29:03;;;;;;;4.93;2.40;;;;;;;;;;5036426;28;20033;-24
2023/01/03 01:31:29;;;;;;;9.15;2.70;;;;;;;;;;5035436;28;20112;-25
2023/01/03 01:33:56;;;;;;;6.85;2.72;;;;;;;;;;5036217;28;20041;-25
2023/01/03 01:36:25;;;;;;;9.52;3.78;;;;;;;;;;5036269;28;20415;-24
2023/01/03 01:38:55;;;;;;;7.25;3.40;;;;;;;;;;5035217;28;20356;-25
2023/01/03 01:44:39;;;;;;;10.77;2.40;;;;;;;;;;5036446;28;20041;-25
2023/01/03 01:47:25;;;;;;;13.32;2.90;;;;;;;;;;5036049;28;20025;-26
2023/01/03 01:49:54;;;;;;;5.10;2.30;;;;;;;;;;5035992;28;20026;-25
2023/01/03 01:52:21;;;;;;;5.82;3.00;;;;;;;;;;5035883;28;20041;-25
2023/01/03 01:54:49;;;;;;;5.47;2.67;;;;;;;;;;5035905;28;20025;-26
2023/01/03 01:57:17;;;;;;;5.60;2.53;;;;;;;;;;5036151;28;20367;-24
2023/01/03 01:59:43;;;;;;;8.05;2.95;;;;;;;;;;5034749;28;20124;-25
2023/01/03 02:02:11;;;;;;;4.07;2.53;;;;;;;;;;5035759;28;20338;-25
2023/01/03 02:04:38;;;;;;;9.63;3.13;;;;;;;;;;5035638;28;20053;-26
2023/01/03 02:07:06;;;;;;;4.15;2.50;;;;;;;;;;5035667;28;20405;-25
2023/01/03 02:09:34;;;;;;;5.85;3.00;;;;;;;;;;5034973;28;20479;-26
2023/01/03 02:15:04;;;;;;;9.68;2.63;;;;;;;;;;5035829;28;20102;-25
2023/01/03 02:17:42;;;;;;;7.38;2.85;;;;;;;;;;5035503;28;20029;-25
2023/01/03 02:20:27;;;;;;;4.00;2.50;;;;;;;;;;5035359;28;20030;-25
2023/01/03 02:23:16;;;;;;;4.40;2.42;;;;;;;;;;5035583;28;20515;-24
2023/01/03 02:25:52;;;;;;;6.55;2.45;;;;;;;;;;5035505;28;20033;-28
2023/01/03 02:28:36;;;;;;;5.72;2.25;;;;;;;;;;5035281;28;20359;-27
2023/01/03 02:31:10;;;;;;;8.13;3.10;;;;;;;;;;5035220;28;20021;-25
2023/01/03 02:33:48;;;;;;;2.95;1.95;;;;;;;;;;5035181;28;20108;-26
2023/01/03 02:36:22;;;;;;;6.05;2.10;;;;;;;;;;5035173;28;20044;-25
2023/01/03 02:38:48;;;;;;;8.75;2.63;;;;;;;;;;5035064;28;20037;-26
2023/01/03 02:41:17;;;;;;;3.42;2.15;;;;;;;;;;5035032;28;20103;-29
2023/01/03 02:43:58;;;;;;;2.95;2.03;;;;;;;;;;5034962;28;20021;-26
2023/01/03 02:46:34;;;;;;;5.55;2.60;;;;;;;;;;5035020;28;20036;-25
2023/01/03 02:49:00;;;;;;;10.05;2.85;;;;;;;;;;5035278;28;20025;-28
2023/01/03 02:51:36;;;;;;;10.68;2.63;;;;;;;;;;5034929;28;20075;-27
2023/01/03 02:54:03;;;;;;;8.80;2.90;;;;;;;;;;5034765;28;20041;-26
2023/01/03 02:56:56;;;;;;;5.53;3.00;;;;;;;;;;5035132;28;20041;-27
2023/01/03 02:59:25;;;;;;;3.30;2.05;;;;;;;;;;5032054;28;20124;-29
2023/01/03 03:01:52;;;;;;;5.20;2.60;;;;;;;;;;5033753;28;20041;-25
2023/01/03 03:04:19;;;;;;;6.20;2.55;;;;;;;;;;5035047;28;20098;-25
2023/01/03 03:06:49;;;;;;;7.55;2.92;;;;;;;;;;5034985;28;20049;-26
2023/01/03 03:09:15;;;;;;;6.07;2.58;;;;;;;;;;5034983;28;20032;-28
2023/01/03 03:14:40;;;;;;;5.53;2.42;;;;;;;;;;5034920;28;20094;-26
2023/01/03 03:17:10;;;;;;;8.18;2.75;;;;;;;;;;5033615;28;20044;-24
2023/01/03 03:25:16;;;;;;;8.38;2.90;;;;;;;;;;5035081;28;20428;-27
2023/01/03 03:30:31;;;;;;;5.00;2.42;;;;;;;;;;5035011;28;20536;-30
2023/01/03 03:33:04;;;;;;;7.03;2.35;;;;;;;;;;5034401;28;20026;-27
2023/01/03 03:35:30;;;;;;;8.77;2.10;;;;;;;;;;5034463;28;20030;-24
2023/01/03 03:37:57;;;;;;;7.35;2.20;;;;;;;;;;5034649;28;20035;-25
2023/01/03 03:46:33;;;;;;;3.15;2.28;;;;;;;;;;4974062;28;20046;-25
2023/01/03 03:51:53;;;;;;;9.35;2.85;;;;;;;;;;5034293;28;20044;-25
2023/01/03 03:54:21;;;;;;;3.60;2.45;;;;;;;;;;5034291;28;20052;-28
2023/01/03 03:56:49;;;;;;;3.95;1.83;;;;;;;;;;5034192;28;20053;-24
2023/01/03 03:59:17;;;;;;;2.80;2.00;;;;;;;;;;5033730;28;20400;-24
2023/01/03 04:01:45;;;;;;;4.25;1.90;;;;;;;;;;5034374;28;20095;-25
2023/01/03 04:04:17;;;;;;;5.25;1.95;;;;;;;;;;5034140;28;20079;-25
2023/01/03 04:06:46;;;;;;;5.47;2.22;;;;;;;;;;5034384;28;20092;-27
2023/01/03 04:09:13;;;;;;;2.58;1.98;;;;;;;;;;5034089;28;20088;-24
2023/01/03 04:11:39;;;;;;;4.28;2.47;;;;;;;;;;5034086;28;20524;-26
2023/01/03 04:14:05;;;;;;;3.13;2.17;;;;;;;;;;5033897;28;20022;-24
2023/01/03 04:16:31;;;;;;;3.85;2.10;;;;;;;;;;5034033;28;20041;-27
2023/01/03 04:18:57;;;;;;;4.40;2.63;;;;;;;;;;5033115;28;20033;-25
2023/01/03 04:21:23;;;;;;;3.45;2.17;;;;;;;;;;5033984;28;20026;-25
2023/01/03 04:23:50;;;;;;;4.50;1.80;;;;;;;;;;5033926;28;20025;-25
2023/01/03 04:26:16;;;;;;;10.80;2.75;;;;;;;;;;5033950;28;20018;-29
2023/01/03 04:28:42;;;;;;;4.32;2.30;;;;;;;;;;5034316;28;20033;-25
2023/01/03 04:31:08;;;;;;;6.63;2.22;;;;;;;;;;5034838;28;20029;-25
2023/01/03 04:33:34;;;;;;;4.88;1.92;;;;;;;;;;5037434;28;20029;-25
2023/01/03 04:36:01;;;;;;;3.25;1.77;;;;;;;;;;5037433;28;20029;-25
2023/01/03 04:38:27;;;;;;;2.75;2.28;;;;;;;;;;5037277;28;20049;-25
2023/01/03 04:40:53;;;;;;;3.88;1.92;;;;;;;;;;5037603;28;20021;-25
2023/01/03 04:46:04;;;;;;;3.65;1.70;;;;;;;;;;5037599;28;20040;-25
2023/01/03 04:48:30;;;;;;;3.65;1.70;;;;;;;;;;5037188;28;20029;-26
2023/01/03 04:50:57;;;;;;;2.75;2.30;;;;;;;;;;5037364;28;20033;-25
2023/01/03 04:53:24;;;;;;;5.05;2.35;;;;;;;;;;5036697;28;20116;-25
2023/01/03 04:55:51;;;;;;;4.97;2.30;;;;;;;;;;5036905;28;20072;-24
2023/01/03 04:58:18;;;;;;;3.65;1.90;;;;;;;;;;5036905;28;20479;-28
2023/01/03 05:00:44;;;;;;;8.43;3.63;;;;;;;;;;5037158;28;20393;-26
2023/01/03 05:03:10;;;;;;;3.90;2.10;;;;;;;;;;5037118;28;20026;-25
2023/01/03 05:05:37;;;;;;;7.05;2.33;;;;;;;;;;5036901;28;20049;-26
2023/01/03 05:08:04;;;;;;;4.15;2.05;;;;;;;;;;5036664;28;20028;-24
2023/01/03 05:10:30;;;;;;;5.18;2.85;;;;;;;;;;5035729;28;20033;-26
2023/01/03 05:12:59;;;;;;;3.55;1.92;;;;;;;;;;5036583;28;20515;-24
2023/01/03 05:15:29;;;;;;;6.40;1.90;;;;;;;;;;5036438;28;20468;-25
2023/01/03 05:17:56;;;;;;;6.45;2.00;;;;;;;;;;5036007;28;20025;-26
2023/01/03 05:25:57;;;;;;;5.50;2.05;;;;;;;;;;5035835;28;20043;-27
2023/01/03 05:28:24;;;;;;;4.22;1.80;;;;;;;;;;5036347;28;20033;-29
2023/01/03 05:30:50;;;;;;;3.83;2.00;;;;;;;;;;5035984;28;20021;-25
2023/01/03 05:33:16;;;;;;;5.78;2.13;;;;;;;;;;5035994;28;20348;-24
2023/01/03 05:35:46;;;;;;;4.50;1.50;;;;;;;;;;5035884;28;20041;-25
2023/01/03 05:38:12;;;;;;;2.95;1.90;;;;;;;;;;5036047;28;20037;-25
2023/01/03 05:40:38;;;;;;;4.63;2.15;;;;;;;;;;5034823;28;20478;-26
2023/01/03 05:43:04;;;;;;;6.10;2.40;;;;;;;;;;5035948;28;20021;-25
2023/01/03 05:45:30;;;;;;;5.47;2.10;;;;;;;;;;5035761;28;20028;-25
2023/01/03 05:47:57;;;;;;;2.38;1.52;;;;;;;;;;5035860;28;20033;-24
2023/01/03 05:50:23;;;;;;;5.93;2.28;;;;;;;;;;5035798;28;20036;-25
2023/01/03 05:52:50;;;;;;;4.90;2.20;;;;;;;;;;5034400;28;20377;-25
2023/01/03 05:55:16;;;;;;;5.55;2.33;;;;;;;;;;5035463;28;20042;-25
2023/01/03 05:57:42;;;;;;;4.45;1.90;;;;;;;;;;5035853;28;20403;-24
2023/01/03 06:00:09;;;;;;;8.50;1.98;;;;;;;;;;5035509;28;20119;-27
2023/01/03 06:02:35;;;;;;;9.48;2.45;;;;;;;;;;5035515;28;20359;-26
2023/01/03 06:05:01;;;;;;;8.60;2.60;;;;;;;;;;5035624;28;20137;-25
2023/01/03 06:07:29;;;;;;;10.98;1.85;;;;;;;;;;5035246;28;20021;-25
2023/01/03 06:09:56;;;;;;;6.22;2.13;;;;;;;;;;5034311;28;20037;-28
2023/01/03 06:12:22;;;;;;;3.28;1.73;;;;;;;;;;5034171;28;20124;-25
2023/01/03 06:14:48;;;;;;;11.73;2.28;;;;;;;;;;5034106;28;20033;-25
2023/01/03 06:19:58;;;;;;;10.77;2.38;;;;;;;;;;5035521;28;20095;-26
2023/01/03 06:22:25;;;;;;;6.78;2.35;;;;;;;;;;5035101;28;20108;-24
2023/01/03 06:24:51;;;;;;;14.25;2.08;;;;;;;;;;5035176;28;20053;-26
2023/01/03 06:27:17;;;;;;;5.40;1.98;;;;;;;;;;5035422;28;20029;-26
2023/01/03 06:29:43;;;;;;;8.82;2.55;;;;;;;;;;5034949;28;20321;-27
2023/01/03 06:32:09;;;;;;;9.95;2.47;;;;;;;;;;5034757;28;20029;-26
2023/01/03 06:34:35;;;;;;;17.67;2.50;;;;;;;;;;5033896;28;20124;-25
2023/01/03 06:37:01;;;;;;;22.13;3.75;;;;;;;;;;5035200;28;20404;-27
2023/01/03 06:39:27;;;;;;;22.52;4.78;;;;;;;;;;5034835;28;20027;-29
2023/01/03 06:41:54;;;;;;;10.05;2.75;;;;;;;;;;5033929;28;20451;-26
2023/01/03 06:44:20;;;;;;;20.13;4.03;;;;;;;;;;5034906;28;20021;-25
2023/01/03 06:55:16;;;;;;;9.63;2.15;;;;;;;;;;5032481;28;19920;-25
2023/01/03 06:57:43;;;;;;;4.25;2.22;;;;;;;;;;5033711;28;20045;-25
2023/01/03 07:00:12;;;;;;;6.72;1.90;;;;;;;;;;5033644;28;20040;-26
2023/01/03 07:02:38;;;;;;;7.68;2.08;;;;;;;;;;5033552;28;20053;-29
2023/01/03 07:05:04;;;;;;;9.57;2.30;;;;;;;;;;5034470;28;20057;-25
2023/01/03 07:07:32;;;;;;;8.63;2.15;;;;;;;;;;5033496;28;20146;-26
2023/01/03 07:09:58;;;;;;;4.40;2.35;;;;;;;;;;5033476;28;20413;-28
2023/01/03 07:15:09;;;;;;;7.68;3.45;;;;;;;;;;5034258;28;20498;-26
2023/01/03 07:17:35;;;;;;;10.48;3.75;;;;;;;;;;5034130;28;20025;-30
2023/01/03 07:20:01;;;;;;;7.90;3.00;;;;;;;;;;5034141;28;20041;-25
2023/01/03 07:22:27;;;;;;;8.18;2.65;;;;;;;;;;5034159;28;20025;-24
2023/01/03 07:24:53;;;;;;;8.68;2.70;;;;;;;;;;5034104;28;20025;-26
2023/01/03 07:27:19;;;;;;;5.00;1.75;;;;;;;;;;5034433;28;20033;-26
2023/01/03 07:29:46;;;;;;;11.73;2.30;;;;;;;;;;5034127;28;20076;-24
2023/01/03 07:32:12;;;;;;;9.88;2.78;;;;;;;;;;5034507;28;20108;-24
2023/01/03 07:34:38;;;;;;;10.13;2.42;;;;;;;;;;5033108;28;20033;-27
2023/01/03 07:37:04;;;;;;;11.98;2.20;;;;;;;;;;5034074;28;20041;-27
2023/01/03 07:39:30;;;;;;;11.18;2.50;;;;;;;;;;5034153;28;20040;-26
2023/01/03 07:44:41;;;;;;;7.55;2.58;;;;;;;;;;5034291;28;20048;-24
2023/01/03 07:47:07;;;;;;;5.50;2.35;;;;;;;;;;5033009;28;20415;-25
2023/01/03 07:49:33;;;;;;;4.63;2.33;;;;;;;;;;5033994;28;20452;-26
2023/01/03 07:51:59;;;;;;;6.05;2.47;;;;;;;;;;5034035;28;20075;-24
2023/01/03 07:54:25;;;;;;;7.07;2.00;;;;;;;;;;5033834;28;20038;-24
2023/01/03 07:56:51;;;;;;;6.65;2.05;;;;;;;;;;5034054;28;20084;-24
2023/01/03 07:59:17;;;;;;;8.63;2.88;;;;;;;;;;5033463;28;20459;-29
2023/01/03 08:01:44;;;;;;;5.78;2.42;;;;;;;;;;5033716;28;20104;-29
2023/01/03 08:04:10;;;;;;;12.02;2.50;;;;;;;;;;5033590;28;20115;-25
2023/01/03 08:06:36;;;;;;;5.85;2.22;;;;;;;;;;5034821;28;20036;-25
2023/01/03 08:14:31;;;;;;;5.72;1.75;;;;;;;;;;5037718;28;20420;-25
2023/01/03 08:16:57;;;;;;;9.20;2.72;;;;;;;;;;5037378;28;20399;-25
2023/01/03 08:19:24;;;;;;;8.30;1.85;;;;;;;;;;5037717;28;20036;-24
2023/01/03 08:21:50;;;;;;;9.07;2.33;;;;;;;;;;5036143;28;20108;-25
2023/01/03 08:24:16;;;;;;;10.73;3.13;;;;;;;;;;5037328;28;20064;-27
2023/01/03 08:26:42;;;;;;;6.70;3.28;;;;;;;;;;5037475;28;20116;-26
2023/01/03 08:29:09;;;;;;;3.38;1.80;;;;;;;;;;5037532;28;20100;-25
2023/01/03 08:31:36;;;;;;;10.77;2.78;;;;;;;;;;5036236;28;20064;-26
2023/01/03 08:34:03;;;;;;;14.43;2.33;;;;;;;;;;5036031;28;20099;-24
2023/01/03 08:36:33;;;;;;;13.30;3.53;;;;;;;;;;5037084;28;20025;-24
2023/01/03 08:39:04;;;;;;;9.37;3.20;;;;;;;;;;5036941;28;20061;-26
2023/01/03 08:41:32;;;;;;;13.52;2.78;;;;;;;;;;5037238;28;20056;-24
2023/01/03 08:43:59;;;;;;;23.05;4.07;;;;;;;;;;5036688;28;20519;-25
2023/01/03 08:46:26;;;;;;;23.83;2.88;;;;;;;;;;5036816;28;20108;-27
2023/01/03 08:48:52;;;;;;;19.35;3.05;;;;;;;;;;5036734;28;20125;-25
2023/01/03 08:51:18;;;;;;;21.05;2.60;;;;;;;;;;5036762;28;20025;-25
2023/01/03 08:53:44;;;;;;;11.98;3.15;;;;;;;;;;5035624;28;20021;-25
2023/01/03 08:56:11;;;;;;;14.35;2.05;;;;;;;;;;5036474;28;20021;-25
2023/01/03 08:58:37;;;;;;;18.98;2.75;;;;;;;;;;5036723;28;20184;-26
2023/01/03 09:01:04;;;;;;;11.40;2.50;;;;;;;;;;5036506;28;20037;-25
2023/01/03 09:03:31;;;;;;;12.40;3.35;;;;;;;;;;5019302;28;20373;-28
2023/01/03 09:06:00;;;;;;;14.52;2.70;;;;;;;;;;5036751;28;20445;-26
2023/01/03 09:08:29;;;;;;;8.40;3.35;;;;;;;;;;5036782;28;20329;-29
2023/01/03 09:10:55;;;;;;;7.93;2.55;;;;;;;;;;5036304;28;20333;-25
2023/01/03 09:13:21;;;;;;;8.13;2.28;;;;;;;;;;5036467;28;20026;-25
2023/01/03 09:15:47;;;;;;;16.23;3.28;;;;;;;;;;5036250;28;20031;-24
2023/01/03 09:18:14;;;;;;;10.50;2.10;;;;;;;;;;5035675;28;20032;-25
2023/01/03 09:20:40;;;;;;;10.88;2.67;;;;;;;;;;5035204;28;20417;-29
2023/01/03 09:23:06;;;;;;;13.05;3.28;;;;;;;;;;5036362;28;20077;-27
2023/01/03 09:25:32;;;;;;;13.10;2.13;;;;;;;;;;5035817;28;20393;-24
2023/01/03 09:27:58;;;;;;;14.93;3.63;;;;;;;;;;5035792;28;20055;-25
2023/01/03 09:30:24;;;;;;;17.08;4.60;;;;;;;;;;5036348;28;20167;-26
2023/01/03 09:32:51;;;;;;;23.73;3.35;;;;;;;;;;5035663;28;20108;-25
2023/01/03 09:35:17;;;;;;;10.65;3.05;;;;;;;;;;5035605;28;20471;-27
2023/01/03 09:37:46;;;;;;;13.93;2.38;;;;;;;;;;5035998;28;20061;-26
2023/01/03 09:40:12;;;;;;;13.43;2.83;;;;;;;;;;5035507;28;20033;-27
2023/01/03 09:45:30;;;;;;;9.45;2.65;;;;;;;;;;5036177;28;20472;-27
2023/01/03 09:47:57;;;;;;;10.38;2.55;;;;;;;;;;5035571;28;20033;-27
2023/01/03 09:50:26;;;;;;;13.52;3.00;;;;;;;;;;5035512;28;20043;-25
2023/01/03 10:04:52;;;;;;;9.15;2.33;;;;;;;;;;5031657;28;20419;-28
2023/01/03 10:07:18;;;;;;;;;;;;;;;;;;5034675;28;20026;-27
2023/01/03 10:09:50;;;;;;;14.02;2.60;;;;;;;;;;5035221;28;20335;-26
2023/01/03 10:12:16;;;;;;;8.00;2.60;;;;;;;;;;5035335;28;20033;-26
2023/01/03 10:14:53;;;;;;;8.93;2.67;;;;;;;;;;5035185;28;20174;-25
2023/01/03 10:17:32;;;;;;;15.80;3.17;;;;;;;;;;5035427;28;20065;-25
2023/01/03 10:20:02;;;;;;;6.40;2.20;;;;;;;;;;5035260;28;20395;-24
2023/01/03 10:22:29;;;;;;;8.52;2.65;;;;;;;;;;5034093;28;20475;-25
2023/01/03 10:25:05;;;;;;;18.42;2.90;;;;;;;;;;5034991;28;20368;-24
2023/01/03 10:27:34;;;;;;;8.93;2.47;;;;;;;;;;5034974;28;20048;-30
2023/01/03 10:30:01;;;;;;;7.20;2.28;;;;;;;;;;5034080;28;20029;-25
2023/01/03 10:32:46;;;;;;;12.90;2.50;;;;;;;;;;5034748;28;20033;-26
2023/01/03 10:35:16;;;;;;;10.32;2.17;;;;;;;;;;5035358;28;20087;-25
2023/01/03 10:37:42;;;;;;;9.23;2.47;;;;;;;;;;5035595;28;20364;-26
2023/01/03 10:40:09;;;;;;;12.57;2.38;;;;;;;;;;5034871;28;20033;-24
2023/01/03 10:42:36;;;;;;;12.02;2.72;;;;;;;;;;5034888;28;20126;-27
2023/01/03 10:45:20;;;;;;;18.42;3.72;;;;;;;;;;5034701;28;20033;-25
2023/01/03 10:47:59;;;;;;;17.08;2.25;;;;;;;;;;5034656;28;20029;-25
2023/01/03 10:50:25;;;;;;;13.88;2.35;;;;;;;;;;5034908;28;20025;-25
2023/01/03 10:52:57;;;;;;;13.10;2.45;;;;;;;;;;5034376;28;20055;-26
2023/01/03 10:55:25;;;;;;;21.00;2.28;;;;;;;;;;5034667;28;20041;-26
2023/01/03 10:58:12;;;;;;;19.15;2.95;;;;;;;;;;5035236;28;20028;-26
2023/01/03 11:00:39;;;;;;;15.43;2.70;;;;;;;;;;5034463;28;20334;-26
2023/01/03 11:03:15;;;;;;;24.63;2.47;;;;;;;;;;5034408;28;20029;-29
2023/01/03 11:05:42;;;;;;;11.70;2.20;;;;;;;;;;5033248;28;20041;-27
2023/01/03 11:08:15;;;;;;;8.05;2.92;;;;;;;;;;5034414;28;20033;-25
2023/01/03 11:10:57;;;;;;;15.35;2.28;;;;;;;;;;5034670;28;20112;-24
2023/01/03 11:13:32;;;;;;;6.93;1.98;;;;;;;;;;5035290;28;20337;-27
2023/01/03 11:15:59;;;;;;;4.68;2.00;;;;;;;;;;5034700;28;20037;-27
2023/01/03 11:18:26;;;;;;;13.48;2.45;;;;;;;;;;5034270;28;20052;-25
2023/01/03 11:21:11;;;;;;;11.60;4.70;;;;;;;;;;5034270;28;20418;-25
2023/01/03 11:23:37;;;;;;;13.52;3.42;;;;;;;;;;5034531;28;20022;-25
2023/01/03 11:26:09;;;;;;;5.38;1.85;;;;;;;;;;5034244;28;20144;-26
2023/01/03 11:28:49;;;;;;;17.13;3.30;;;;;;;;;;5035026;28;20017;-26
2023/01/03 11:31:26;;;;;;;12.63;2.45;;;;;;;;;;5034258;28;20033;-25
2023/01/03 11:34:04;;;;;;;14.57;2.60;;;;;;;;;;5034497;28;20033;-27
2023/01/03 11:36:52;;;;;;;10.77;2.55;;;;;;;;;;5034215;28;20428;-24
2023/01/03 11:39:18;;;;;;;19.90;2.55;;;;;;;;;;5033019;28;20464;-25
2023/01/03 11:41:47;;;;;;;10.88;3.75;;;;;;;;;;5037364;28;20029;-31
2023/01/03 11:44:32;;;;;;;22.40;2.55;;;;;;;;;;5037930;28;20407;-25
2023/01/03 11:46:58;;;;;;;13.88;2.65;;;;;;;;;;5038134;28;20360;-25
2023/01/03 11:49:30;;;;;;;25.75;2.85;;;;;;;;;;5038043;28;20096;-25
2023/01/03 11:52:02;;;;;;;16.60;3.22;;;;;;;;;;5037972;28;20117;-25
2023/01/03 11:54:43;;;;;;;10.00;2.50;;;;;;;;;;5038037;28;20026;-25
2023/01/03 11:57:26;;;;;;;12.35;2.90;;;;;;;;;;5037910;28;20030;-25
2023/01/03 11:59:58;;;;;;;18.85;3.22;;;;;;;;;;5037912;28;20368;-26
2023/01/03 12:02:24;;;;;;;15.05;2.22;;;;;;;;;;5037551;28;20083;-28
2023/01/03 12:05:09;;;;;;;10.18;2.40;;;;;;;;;;5037441;28;20094;-27
2023/01/03 12:07:38;;;;;;;15.05;3.38;;;;;;;;;;5037864;28;20372;-25
2023/01/03 12:10:14;;;;;;;10.90;2.50;;;;;;;;;;5036591;28;20457;-27
2023/01/03 12:12:40;;;;;;;8.75;2.30;;;;;;;;;;5037815;28;20407;-27
2023/01/03 12:15:09;;;;;;;9.20;2.40;;;;;;;;;;5037768;28;20160;-25
2023/01/03 12:17:35;;;;;;;8.40;2.10;;;;;;;;;;5037442;28;20459;-25
2023/01/03 12:20:04;;;;;;;4.10;2.08;;;;;;;;;;5037300;28;20117;-29
2023/01/03 12:22:36;;;;;;;7.07;2.38;;;;;;;;;;5037250;28;20044;-27
2023/01/03 12:25:02;;;;;;;10.07;2.38;;;;;;;;;;5037561;28;20520;-26
2023/01/03 12:27:50;;;;;;;11.52;2.60;;;;;;;;;;5036384;28;20025;-24
2023/01/03 12:30:19;;;;;;;9.70;2.50;;;;;;;;;;5037494;28;20026;-24
2023/01/03 12:33:08;;;;;;;13.80;2.58;;;;;;;;;;5037078;28;20037;-24
2023/01/03 12:35:39;;;;;;;10.52;1.98;;;;;;;;;;5009743;28;20045;-24
2023/01/03 12:38:06;;;;;;;;;;;;;;;;;;5037625;28;20468;-26
2023/01/03 12:40:38;;;;;;;7.40;2.13;;;;;;;;;;5037048;28;19920;-27
2023/01/03 12:43:09;;;;;;;11.02;3.75;;;;;;;;;;5037110;28;20488;-25
2023/01/03 12:45:54;;;;;;;9.73;2.47;;;;;;;;;;5037266;28;20072;-30
2023/01/03 12:48:47;;;;;;;9.90;2.45;;;;;;;;;;5036882;28;20476;-24
2023/01/03 12:51:15;;;;;;;17.67;3.20;;;;;;;;;;5033800;28;20037;-26
2023/01/03 12:53:45;;;;;;;10.20;2.67;;;;;;;;;;5034939;28;20040;-24
2023/01/03 12:56:29;;;;;;;11.45;3.13;;;;;;;;;;5036487;28;20512;-26
2023/01/03 12:58:56;;;;;;;6.28;2.03;;;;;;;;;;5036541;28;20059;-25
2023/01/03 13:01:28;;;;;;;11.02;2.58;;;;;;;;;;5035270;28;20476;-24
2023/01/03 13:04:07;;;;;;;18.45;2.33;;;;;;;;;;5036390;28;20372;-24
2023/01/03 13:06:35;;;;;;;12.80;3.13;;;;;;;;;;5036729;28;20037;-25
2023/01/03 13:09:03;;;;;;;12.48;2.33;;;;;;;;;;5036454;28;20029;-25
2023/01/03 13:11:52;;;;;;;11.43;2.10;;;;;;;;;;5036440;28;20091;-25
2023/01/03 13:14:20;;;;;;;4.28;2.10;;;;;;;;;;5029430;28;20159;-25
2023/01/03 13:16:47;;;;;;;7.95;2.17;;;;;;;;;;5036591;28;20052;-27
2023/01/03 13:19:22;;;;;;;13.02;2.45;;;;;;;;;;5036485;28;20407;-27
2023/01/03 13:21:54;;;;;;;16.73;2.53;;;;;;;;;;5036190;28;20030;-24
2023/01/03 13:24:40;;;;;;;14.27;2.90;;;;;;;;;;5036294;28;20036;-25
2023/01/03 13:27:21;;;;;;;16.08;2.78;;;;;;;;;;5035260;28;20416;-25
2023/01/03 13:29:47;;;;;;;;;;;;;;;;;;5036799;28;20021;-24
2023/01/03 13:32:17;;;;;;;18.42;2.78;;;;;;;;;;5035873;28;20344;-25
2023/01/03 13:34:43;;;;;;;14.52;2.38;;;;;;;;;;5036031;28;20040;-25
2023/01/03 13:37:09;;;;;;;20.40;3.58;;;;;;;;;;5034850;28;20025;-25
2023/01/03 13:39:47;;;;;;;10.32;3.55;;;;;;;;;;5036118;28;20356;-30
2023/01/03 13:42:30;;;;;;;13.52;2.30;;;;;;;;;;5036141;28;20399;-24
2023/01/03 13:45:14;;;;;;;10.82;3.10;;;;;;;;;;5035922;28;20025;-25
2023/01/03 13:47:46;;;;;;;10.75;3.10;;;;;;;;;;5035818;28;20041;-24
2023/01/03 13:50:22;;;;;;;16.98;2.53;;;;;;;;;;5035743;28;20062;-25
2023/01/03 13:53:05;;;;;;;11.85;2.60;;;;;;;;;;5035785;28;20097;-25
2023/01/03 13:55:38;;;;;;;10.55;2.92;;;;;;;;;;5036031;28;20029;-24
2023/01/03 13:58:27;;;;;;;5.07;1.83;;;;;;;;;;5035972;28;20416;-24
2023/01/03 14:01:02;;;;;;;22.63;4.22;;;;;;;;;;5035478;28;20082;-26
2023/01/03 14:03:47;;;;;;;20.25;3.20;;;;;;;;;;5035519;28;20444;-25
2023/01/03 14:06:25;;;;;;;14.13;2.20;;;;;;;;;;5035400;28;20453;-25
2023/01/03 14:09:09;;;;;;;13.63;2.55;;;;;;;;;;5035457;28;20056;-25
2023/01/03 14:11:52;;;;;;;8.07;2.15;;;;;;;;;;5035753;28;20055;-24
2023/01/03 14:14:21;;;;;;;8.43;2.13;;;;;;;;;;5035527;28;20098;-25
2023/01/03 14:16:49;;;;;;;10.27;3.42;;;;;;;;;;5035024;28;20029;-25
2023/01/03 14:19:23;;;;;;;12.73;2.22;;;;;;;;;;5034054;28;20113;-24
2023/01/03 14:22:08;;;;;;;8.55;2.70;;;;;;;;;;5033899;28;20022;-28
2023/01/03 14:24:34;;;;;;;7.10;1.83;;;;;;;;;;5035324;28;20096;-25
2023/01/03 14:27:11;;;;;;;4.95;2.38;;;;;;;;;;5035493;28;20033;-26
2023/01/03 14:29:38;;;;;;;6.82;2.28;;;;;;;;;;5035139;28;20033;-25
2023/01/03 14:32:05;;;;;;;11.45;3.10;;;;;;;;;;5034445;28;20040;-24
2023/01/03 14:34:35;;;;;;;11.93;3.63;;;;;;;;;;5035844;28;20035;-24
2023/01/03 14:37:06;;;;;;;5.45;2.13;;;;;;;;;;5034624;28;20037;-25
2023/01/03 14:39:33;;;;;;;10.10;2.17;;;;;;;;;;5034797;28;20425;-24
2023/01/03 14:42:00;;;;;;;6.72;2.33;;;;;;;;;;5034535;28;20052;-26
2023/01/03 14:44:28;;;;;;;8.82;2.17;;;;;;;;;;5033900;28;20435;-27
2023/01/03 14:46:58;;;;;;;5.80;1.95;;;;;;;;;;5034906;28;20105;-24
2023/01/03 14:49:29;;;;;;;7.03;2.80;;;;;;;;;;5034825;28;20025;-24
2023/01/03 14:52:02;;;;;;;8.40;2.15;;;;;;;;;;5034809;28;20159;-25
2023/01/03 14:54:29;;;;;;;12.85;2.47;;;;;;;;;;5034844;28;20119;-25
2023/01/03 14:56:55;;;;;;;9.02;2.08;;;;;;;;;;5033522;28;20029;-25
2023/01/03 14:59:22;;;;;;;9.70;2.72;;;;;;;;;;5034228;28;20024;-25
2023/01/03 15:01:48;;;;;;;12.05;2.92;;;;;;;;;;5034596;28;20017;-31
2023/01/03 15:04:15;;;;;;;15.50;2.65;;;;;;;;;;5034807;28;20065;-24
2023/01/03 15:06:56;;;;;;;12.77;4.05;;;;;;;;;;5034279;28;20029;-25
2023/01/03 15:09:22;;;;;;;14.83;3.00;;;;;;;;;;5033400;28;20029;-26
2023/01/03 15:11:55;;;;;;;24.67;4.80;;;;;;;;;;5034545;28;20049;-24
2023/01/03 15:14:25;;;;;;;43.10;4.45;;;;;;;;;;5033176;28;20026;-24
2023/01/03 15:16:52;;;;;;;22.40;4.47;;;;;;;;;;5034057;28;20033;-24
2023/01/03 15:19:18;;;;;;;20.50;3.38;;;;;;;;;;5034134;28;20033;-24
2023/01/03 15:21:44;;;;;;;24.08;2.50;;;;;;;;;;5033925;28;20050;-25
2023/01/03 15:24:15;;;;;;;15.13;2.92;;;;;;;;;;5034109;28;20017;-25
2023/01/03 15:26:41;;;;;;;;;;;;;;;;;;5034505;28;20152;-25
2023/01/03 15:29:13;;;;;;;37.70;6.70;;;;;;;;;;5034088;28;19936;-25
2023/01/03 15:31:50;;;;;;;23.08;3.17;;;;;;;;;;5034051;28;20021;-25
2023/01/03 15:34:18;;;;;;;26.90;4.68;;;;;;;;;;5034071;28;20026;-25
2023/01/03 15:37:04;;;;;;;20.67;3.10;;;;;;;;;;5034476;28;20025;-24
2023/01/03 15:39:39;;;;;;;23.70;4.38;;;;;;;;;;5034530;28;20029;-27
2023/01/03 15:44:54;;;;;;;15.30;2.70;;;;;;;;;;5033903;28;20103;-24
2023/01/03 15:47:20;;;;;;;31.77;4.20;;;;;;;;;;5033602;28;20021;-24
2023/01/03 15:49:49;;;;;;;24.45;2.83;;;;;;;;;;5033861;28;20029;-24
2023/01/03 15:52:15;;;;;;;17.50;3.00;;;;;;;;;;5034504;28;20057;-25
2023/01/03 15:54:43;;;;;;;12.38;2.58;;;;;;;;;;5033877;28;20021;-24
2023/01/03 15:57:16;;;;;;;10.82;2.20;;;;;;;;;;5034048;28;20029;-25
2023/01/03 15:59:43;;;;;;;11.95;3.03;;;;;;;;;;5033900;28;20115;-25
2023/01/03 16:02:16;;;;;;;10.30;2.45;;;;;;;;;;5033798;28;20025;-25
2023/01/03 16:04:43;;;;;;;13.68;2.95;;;;;;;;;;5034068;28;20106;-25
2023/01/03 16:07:10;;;;;;;11.45;3.30;;;;;;;;;;5034231;28;20022;-25